الصفحة الرئيسية
METAR-TAF:

METAR-TAF

مطار :

مطار بالما دي مايوركا

بالما دي مايوركا, إسبانيا

دائرة عرض: 39-33N, خط طول: 002-44E, ارتفاع: 4 متر

مراقبة الطقس الحالي

تاريخ ووقت الإصدار 16 دقيقة قبل الساعة 03:00UTC
ريح 1 عقدةمن اتجاهات متغيرة
درجة الحرارة 18°درجة مئوية
الرطوبة 83%
ضغط 1021 hPa
الرؤية 10 كم أو أكثر
غيوم قليلة على ارتفاع 4000 قدم

METAR: LEPA 040300Z VRB01KT 9999 FEW040 18/15 Q1021 NOSIG

زمن: 05:16 (03:16 UTC)

توقعات

تاريخ ووقت الإصدار 4ساعات و 16 دقيقة قبل الساعة 23:00UTC
التوقعات صالحة من04 الساعة 00 UTC إلى 04 الساعة 24 UTC
ريح 5 عقدة من الشرق/الشمال الشرقي
الرؤية 10 كم أو أكثر
غيوم متفرقة على ارتفاع 3000 قدم
أصبح
من 04 الساعة 07 UTC إلى 04 الساعة 09 UTC
ريح 10 عقدة من الجنوب الغربي

TAF: LEPA 032300Z 0400/0424 06005KT 9999 SCT030 TX28/0412Z TN18/0406Z BECMG 0407/0409 22010KT

أرصاد الطقس والتوقعات من أكثر من 4000 مطار (تقارير الطقس للمطار METAR والتنبؤ بالطقس بالمطارTAF).

المحطات المتاحة هي النقط الصفراء والحمراء على الخريطة.

حرك المؤشر فوق النقطة لمعرفة اسم المحطة.

ثم انقر لمعرفة أرصاد وتوقعات الطقس.

لتغيير الخارطة: اضغط على الأزرار الخضراء مع رمز الصليب الأسود للتكبير. على الزر الأخضر مع شرطة للتصغير، أو على الأسهم الخضراء للخرائط المجاورة.


METAR-TAF: